Pagrindinis puslapis
METAR-TAF:

METAR-TAF

Oro uostai :

Resifė, Pernambuco, Brazilija

platuma: 08-08S, ilguma: 034-55W, Aukštis: 19 m

Dabartinis oras

Ataskaita buvo paskelbta 15 minutes, ne 02:00 UTC
Vėjas 5 kt iš Pietryčių
Temperatūra 28°C
Drėgmė 74%
Slėgis 1012 hPa
Matomumas 10 km arba daugiau
Mažai debesys ne aukštis 2300 ft

METAR: SBRF 090200Z 13005KT 9999 FEW023 28/23 Q1012

Laikas: 23:15 (02:15 UTC)

Prognozė

Ataskaita buvo paskelbta 4 valandos ir 15 minutes, ne 22:00 UTC
Prognozė galioja nuo 09 metu 00 UTC su 09 metu 24 UTC
Vėjas 8 kt iš Rytų/Pietryčių
Matomumas 10 km arba daugiau
Išsisklaidę debesys ne aukštis 2500 ft
Tapsmas
nuo 09 metu 04 UTC su 09 metu 06 UTC
Vėjas 4 kt iš Pietvakarių
Tapsmas
nuo 09 metu 12 UTC su 09 metu 14 UTC
Vėjas 10 kt iš Pietryčių
Tapsmas
nuo 09 metu 21 UTC su 09 metu 23 UTC
Vėjas 5 kt iš Rytų/Pietryčių

TAF: SBRF 082200Z 0900/0924 12008KT 9999 SCT025 TN26/0908Z TX31/0915Z BECMG 0904/0906 22004KT BECMG 0912/0914 14010KT BECMG 0921/0923 12005KT RMK PDU

Orai ataskaitas ir orų prognozės (METAR, TAF).

turimą stotys yra geltonos ir raudonos taškus žemėlapyje.

Perkelti pele per norėdami pamatyti stoties vardą.

Tada spustelėkite, norėdami matyti oro stebėjimo ir prognozės.

Norėdami pakeisti žemėlapį: spustelėkite ant žalios mygtukų su juodo kryžiaus žemyn,; žalią mygtuką su brūkšneliu, jei norite nutolinti; arba žalių rodyklių gretimoms žemėlapius.


METAR-TAF: